sensor_id;sensor_type;location;lat;lon;timestamp;P1;durP1;ratioP1;P2;durP2;ratioP2
36575;SDS011;45700;50.930;5.168;2023-07-31T00:02:33;7.13;;;2.00;;
36575;SDS011;45700;50.930;5.168;2023-07-31T00:06:34;7.45;;;1.65;;
36575;SDS011;45700;50.930;5.168;2023-07-31T00:10:35;10.70;;;2.17;;
36575;SDS011;45700;50.930;5.168;2023-07-31T00:14:36;14.20;;;2.22;;
36575;SDS011;45700;50.930;5.168;2023-07-31T00:18:37;7.90;;;1.83;;
36575;SDS011;45700;50.930;5.168;2023-07-31T00:22:38;7.97;;;1.75;;
36575;SDS011;45700;50.930;5.168;2023-07-31T00:26:39;9.48;;;1.90;;
36575;SDS011;45700;50.930;5.168;2023-07-31T00:30:40;8.98;;;2.38;;
36575;SDS011;45700;50.930;5.168;2023-07-31T00:34:41;7.20;;;2.22;;
36575;SDS011;45700;50.930;5.168;2023-07-31T00:38:43;7.50;;;2.22;;
36575;SDS011;45700;50.930;5.168;2023-07-31T00:42:44;8.52;;;2.47;;
36575;SDS011;45700;50.930;5.168;2023-07-31T00:46:45;8.77;;;2.17;;
36575;SDS011;45700;50.930;5.168;2023-07-31T00:50:46;10.57;;;1.88;;
36575;SDS011;45700;50.930;5.168;2023-07-31T00:54:48;7.95;;;1.77;;
36575;SDS011;45700;50.930;5.168;2023-07-31T00:58:49;5.78;;;1.90;;
36575;SDS011;45700;50.930;5.168;2023-07-31T01:02:50;9.10;;;2.05;;
36575;SDS011;45700;50.930;5.168;2023-07-31T01:15:15;12.63;;;2.50;;
36575;SDS011;45700;50.930;5.168;2023-07-31T01:19:18;7.63;;;2.10;;
36575;SDS011;45700;50.930;5.168;2023-07-31T01:23:34;14.38;;;2.45;;
36575;SDS011;45700;50.930;5.168;2023-07-31T01:27:44;6.28;;;1.90;;
36575;SDS011;45700;50.930;5.168;2023-07-31T01:31:48;7.00;;;2.08;;
36575;SDS011;45700;50.930;5.168;2023-07-31T01:35:50;6.97;;;2.45;;
36575;SDS011;45700;50.930;5.168;2023-07-31T01:39:52;6.53;;;2.08;;
36575;SDS011;45700;50.930;5.168;2023-07-31T01:43:53;9.20;;;2.17;;
36575;SDS011;45700;50.930;5.168;2023-07-31T01:47:54;14.20;;;2.72;;
36575;SDS011;45700;50.930;5.168;2023-07-31T01:51:55;6.82;;;1.98;;
36575;SDS011;45700;50.930;5.168;2023-07-31T01:55:55;7.32;;;2.45;;
36575;SDS011;45700;50.930;5.168;2023-07-31T01:59:57;9.93;;;2.58;;
36575;SDS011;45700;50.930;5.168;2023-07-31T02:03:58;8.73;;;2.33;;
36575;SDS011;45700;50.930;5.168;2023-07-31T02:07:59;11.63;;;2.17;;
36575;SDS011;45700;50.930;5.168;2023-07-31T02:12:00;10.77;;;2.45;;
36575;SDS011;45700;50.930;5.168;2023-07-31T02:16:00;11.15;;;2.13;;
36575;SDS011;45700;50.930;5.168;2023-07-31T02:20:02;17.27;;;3.58;;
36575;SDS011;45700;50.930;5.168;2023-07-31T02:24:03;10.23;;;2.55;;
36575;SDS011;45700;50.930;5.168;2023-07-31T02:28:04;10.38;;;3.25;;
36575;SDS011;45700;50.930;5.168;2023-07-31T02:32:05;12.20;;;2.63;;
36575;SDS011;45700;50.930;5.168;2023-07-31T02:36:06;15.23;;;3.13;;
36575;SDS011;45700;50.930;5.168;2023-07-31T02:40:07;10.50;;;3.08;;
36575;SDS011;45700;50.930;5.168;2023-07-31T02:44:09;10.77;;;2.50;;
36575;SDS011;45700;50.930;5.168;2023-07-31T02:48:10;9.27;;;2.58;;
36575;SDS011;45700;50.930;5.168;2023-07-31T02:52:11;11.23;;;2.55;;
36575;SDS011;45700;50.930;5.168;2023-07-31T02:56:12;11.05;;;3.03;;
36575;SDS011;45700;50.930;5.168;2023-07-31T03:00:13;9.23;;;2.60;;
36575;SDS011;45700;50.930;5.168;2023-07-31T03:04:14;8.38;;;2.83;;
36575;SDS011;45700;50.930;5.168;2023-07-31T03:08:15;5.57;;;2.63;;
36575;SDS011;45700;50.930;5.168;2023-07-31T03:12:16;7.70;;;2.75;;
36575;SDS011;45700;50.930;5.168;2023-07-31T03:16:17;8.60;;;2.70;;
36575;SDS011;45700;50.930;5.168;2023-07-31T03:20:18;9.77;;;2.38;;
36575;SDS011;45700;50.930;5.168;2023-07-31T03:24:19;9.00;;;2.83;;
36575;SDS011;45700;50.930;5.168;2023-07-31T03:28:20;8.77;;;2.72;;
36575;SDS011;45700;50.930;5.168;2023-07-31T03:32:21;7.93;;;2.40;;
36575;SDS011;45700;50.930;5.168;2023-07-31T03:36:22;7.40;;;2.80;;
36575;SDS011;45700;50.930;5.168;2023-07-31T03:40:23;8.35;;;2.45;;
36575;SDS011;45700;50.930;5.168;2023-07-31T03:44:24;6.35;;;2.40;;
36575;SDS011;45700;50.930;5.168;2023-07-31T03:48:25;6.97;;;2.13;;
36575;SDS011;45700;50.930;5.168;2023-07-31T03:52:26;5.63;;;2.08;;
36575;SDS011;45700;50.930;5.168;2023-07-31T03:56:27;8.15;;;2.40;;
36575;SDS011;45700;50.930;5.168;2023-07-31T04:00:29;4.75;;;2.17;;
36575;SDS011;45700;50.930;5.168;2023-07-31T04:04:30;4.75;;;2.10;;
36575;SDS011;45700;50.930;5.168;2023-07-31T04:08:31;5.45;;;2.20;;
36575;SDS011;45700;50.930;5.168;2023-07-31T04:12:32;8.77;;;2.13;;
36575;SDS011;45700;50.930;5.168;2023-07-31T04:16:33;5.20;;;2.10;;
36575;SDS011;45700;50.930;5.168;2023-07-31T04:20:34;4.90;;;2.60;;
36575;SDS011;45700;50.930;5.168;2023-07-31T04:24:35;11.70;;;2.35;;
36575;SDS011;45700;50.930;5.168;2023-07-31T04:28:36;8.07;;;2.65;;
36575;SDS011;45700;50.930;5.168;2023-07-31T04:32:37;11.35;;;1.88;;
36575;SDS011;45700;50.930;5.168;2023-07-31T04:36:38;3.47;;;1.80;;
36575;SDS011;45700;50.930;5.168;2023-07-31T04:40:39;6.30;;;2.75;;
36575;SDS011;45700;50.930;5.168;2023-07-31T04:44:40;5.63;;;2.40;;
36575;SDS011;45700;50.930;5.168;2023-07-31T04:48:42;3.67;;;1.90;;
36575;SDS011;45700;50.930;5.168;2023-07-31T04:52:43;7.50;;;2.22;;
36575;SDS011;45700;50.930;5.168;2023-07-31T04:56:44;6.75;;;1.90;;
36575;SDS011;45700;50.930;5.168;2023-07-31T05:00:45;7.00;;;2.30;;
36575;SDS011;45700;50.930;5.168;2023-07-31T05:04:46;5.78;;;2.15;;
36575;SDS011;45700;50.930;5.168;2023-07-31T05:08:47;4.03;;;2.08;;
36575;SDS011;45700;50.930;5.168;2023-07-31T05:12:48;4.68;;;2.35;;
36575;SDS011;45700;50.930;5.168;2023-07-31T05:16:49;7.28;;;2.10;;
36575;SDS011;45700;50.930;5.168;2023-07-31T05:20:50;5.32;;;2.10;;
36575;SDS011;45700;50.930;5.168;2023-07-31T05:24:51;5.22;;;2.00;;
36575;SDS011;45700;50.930;5.168;2023-07-31T05:28:54;11.10;;;2.13;;
36575;SDS011;45700;50.930;5.168;2023-07-31T05:32:55;5.30;;;2.10;;
36575;SDS011;45700;50.930;5.168;2023-07-31T05:36:56;5.32;;;2.05;;
36575;SDS011;45700;50.930;5.168;2023-07-31T05:40:56;5.75;;;2.80;;
36575;SDS011;45700;50.930;5.168;2023-07-31T05:44:58;6.45;;;2.25;;
36575;SDS011;45700;50.930;5.168;2023-07-31T05:48:59;8.23;;;2.25;;
36575;SDS011;45700;50.930;5.168;2023-07-31T05:53:00;6.13;;;2.17;;
36575;SDS011;45700;50.930;5.168;2023-07-31T05:57:02;6.35;;;2.25;;
36575;SDS011;45700;50.930;5.168;2023-07-31T06:01:03;8.70;;;2.42;;
36575;SDS011;45700;50.930;5.168;2023-07-31T06:05:04;6.40;;;2.03;;
36575;SDS011;45700;50.930;5.168;2023-07-31T06:09:08;4.55;;;2.00;;
36575;SDS011;45700;50.930;5.168;2023-07-31T06:13:09;6.13;;;1.92;;
36575;SDS011;45700;50.930;5.168;2023-07-31T06:17:10;6.95;;;2.00;;
36575;SDS011;45700;50.930;5.168;2023-07-31T06:21:11;4.07;;;2.13;;
36575;SDS011;45700;50.930;5.168;2023-07-31T06:25:12;5.72;;;1.67;;
36575;SDS011;45700;50.930;5.168;2023-07-31T06:29:13;3.97;;;1.83;;
36575;SDS011;45700;50.930;5.168;2023-07-31T06:33:14;4.53;;;2.08;;
36575;SDS011;45700;50.930;5.168;2023-07-31T06:37:15;7.95;;;1.65;;
36575;SDS011;45700;50.930;5.168;2023-07-31T06:41:17;3.90;;;1.80;;
36575;SDS011;45700;50.930;5.168;2023-07-31T06:45:18;7.80;;;2.30;;
36575;SDS011;45700;50.930;5.168;2023-07-31T06:49:19;5.03;;;1.90;;
36575;SDS011;45700;50.930;5.168;2023-07-31T06:53:20;6.55;;;1.70;;
36575;SDS011;45700;50.930;5.168;2023-07-31T06:57:21;4.03;;;1.80;;
36575;SDS011;45700;50.930;5.168;2023-07-31T07:01:22;6.22;;;1.60;;
36575;SDS011;45700;50.930;5.168;2023-07-31T07:05:22;3.85;;;2.10;;
36575;SDS011;45700;50.930;5.168;2023-07-31T07:09:23;4.88;;;1.35;;
36575;SDS011;45700;50.930;5.168;2023-07-31T07:13:24;5.65;;;2.05;;
36575;SDS011;45700;50.930;5.168;2023-07-31T07:17:26;5.07;;;2.20;;
36575;SDS011;45700;50.930;5.168;2023-07-31T07:21:28;5.82;;;2.20;;
36575;SDS011;45700;50.930;5.168;2023-07-31T07:25:29;3.88;;;1.95;;
36575;SDS011;45700;50.930;5.168;2023-07-31T07:29:30;6.10;;;1.85;;
36575;SDS011;45700;50.930;5.168;2023-07-31T07:33:31;5.05;;;1.85;;
36575;SDS011;45700;50.930;5.168;2023-07-31T07:37:32;5.75;;;2.05;;
36575;SDS011;45700;50.930;5.168;2023-07-31T07:41:33;3.25;;;2.15;;
36575;SDS011;45700;50.930;5.168;2023-07-31T07:45:34;5.10;;;1.80;;
36575;SDS011;45700;50.930;5.168;2023-07-31T07:49:35;7.28;;;1.80;;
36575;SDS011;45700;50.930;5.168;2023-07-31T07:53:36;4.68;;;2.13;;
36575;SDS011;45700;50.930;5.168;2023-07-31T07:57:37;7.85;;;1.73;;
36575;SDS011;45700;50.930;5.168;2023-07-31T08:01:39;3.55;;;1.77;;
36575;SDS011;45700;50.930;5.168;2023-07-31T08:05:40;6.95;;;1.98;;
36575;SDS011;45700;50.930;5.168;2023-07-31T08:09:41;3.88;;;1.75;;
36575;SDS011;45700;50.930;5.168;2023-07-31T08:13:42;3.13;;;1.50;;
36575;SDS011;45700;50.930;5.168;2023-07-31T08:17:43;9.30;;;1.83;;
36575;SDS011;45700;50.930;5.168;2023-07-31T08:21:44;5.13;;;1.83;;
36575;SDS011;45700;50.930;5.168;2023-07-31T08:25:45;6.50;;;2.28;;
36575;SDS011;45700;50.930;5.168;2023-07-31T08:29:46;5.72;;;1.92;;
36575;SDS011;45700;50.930;5.168;2023-07-31T08:33:47;3.90;;;1.92;;
36575;SDS011;45700;50.930;5.168;2023-07-31T08:37:48;4.47;;;2.05;;
36575;SDS011;45700;50.930;5.168;2023-07-31T08:41:49;4.68;;;1.85;;
36575;SDS011;45700;50.930;5.168;2023-07-31T08:45:50;5.60;;;1.80;;
36575;SDS011;45700;50.930;5.168;2023-07-31T08:49:51;4.75;;;2.00;;
36575;SDS011;45700;50.930;5.168;2023-07-31T08:53:53;3.97;;;1.73;;
36575;SDS011;45700;50.930;5.168;2023-07-31T08:57:54;4.82;;;1.73;;
36575;SDS011;45700;50.930;5.168;2023-07-31T09:01:57;6.72;;;1.70;;
36575;SDS011;45700;50.930;5.168;2023-07-31T09:05:58;5.22;;;1.70;;
36575;SDS011;45700;50.930;5.168;2023-07-31T09:10:00;3.15;;;1.40;;
36575;SDS011;45700;50.930;5.168;2023-07-31T09:14:01;3.63;;;1.73;;
36575;SDS011;45700;50.930;5.168;2023-07-31T09:18:08;5.25;;;1.83;;
36575;SDS011;45700;50.930;5.168;2023-07-31T09:22:09;2.63;;;1.58;;
36575;SDS011;45700;50.930;5.168;2023-07-31T09:26:10;2.50;;;1.30;;
36575;SDS011;45700;50.930;5.168;2023-07-31T09:30:11;2.40;;;1.27;;
36575;SDS011;45700;50.930;5.168;2023-07-31T09:34:12;4.72;;;1.00;;
36575;SDS011;45700;50.930;5.168;2023-07-31T09:38:14;2.17;;;1.40;;
36575;SDS011;45700;50.930;5.168;2023-07-31T09:42:24;2.85;;;1.05;;
36575;SDS011;45700;50.930;5.168;2023-07-31T09:46:26;2.47;;;1.02;;
36575;SDS011;45700;50.930;5.168;2023-07-31T09:50:28;1.65;;;0.80;;
36575;SDS011;45700;50.930;5.168;2023-07-31T09:54:30;3.70;;;1.15;;
36575;SDS011;45700;50.930;5.168;2023-07-31T09:58:31;3.83;;;1.08;;
36575;SDS011;45700;50.930;5.168;2023-07-31T10:02:36;3.42;;;1.40;;
36575;SDS011;45700;50.930;5.168;2023-07-31T10:06:38;3.28;;;1.25;;
36575;SDS011;45700;50.930;5.168;2023-07-31T10:10:43;3.72;;;1.58;;
36575;SDS011;45700;50.930;5.168;2023-07-31T10:14:44;2.58;;;1.55;;
36575;SDS011;45700;50.930;5.168;2023-07-31T10:18:45;4.00;;;2.15;;
36575;SDS011;45700;50.930;5.168;2023-07-31T10:22:46;4.70;;;1.80;;
36575;SDS011;45700;50.930;5.168;2023-07-31T10:26:48;5.95;;;1.52;;
36575;SDS011;45700;50.930;5.168;2023-07-31T10:30:49;4.07;;;1.90;;
36575;SDS011;45700;50.930;5.168;2023-07-31T10:34:51;6.18;;;1.80;;
36575;SDS011;45700;50.930;5.168;2023-07-31T10:38:52;4.97;;;2.05;;
36575;SDS011;45700;50.930;5.168;2023-07-31T10:42:56;6.00;;;2.00;;
36575;SDS011;45700;50.930;5.168;2023-07-31T10:46:57;6.90;;;2.65;;
36575;SDS011;45700;50.930;5.168;2023-07-31T10:51:01;6.78;;;2.00;;
36575;SDS011;45700;50.930;5.168;2023-07-31T10:59:26;8.30;;;2.90;;
36575;SDS011;45700;50.930;5.168;2023-07-31T11:07:50;3.72;;;2.00;;
36575;SDS011;45700;50.930;5.168;2023-07-31T11:11:51;7.18;;;2.08;;
36575;SDS011;45700;50.930;5.168;2023-07-31T11:15:53;3.35;;;1.80;;
36575;SDS011;45700;50.930;5.168;2023-07-31T11:19:54;13.52;;;2.55;;
36575;SDS011;45700;50.930;5.168;2023-07-31T11:23:58;6.10;;;1.90;;
36575;SDS011;45700;50.930;5.168;2023-07-31T11:28:03;6.60;;;2.25;;
36575;SDS011;45700;50.930;5.168;2023-07-31T11:32:04;4.32;;;1.83;;
36575;SDS011;45700;50.930;5.168;2023-07-31T11:36:05;7.28;;;2.22;;
36575;SDS011;45700;50.930;5.168;2023-07-31T11:40:06;4.47;;;2.28;;
36575;SDS011;45700;50.930;5.168;2023-07-31T11:44:08;5.13;;;2.08;;
36575;SDS011;45700;50.930;5.168;2023-07-31T11:48:09;6.20;;;2.40;;
36575;SDS011;45700;50.930;5.168;2023-07-31T11:52:10;10.05;;;2.63;;
36575;SDS011;45700;50.930;5.168;2023-07-31T11:56:19;6.45;;;2.13;;
36575;SDS011;45700;50.930;5.168;2023-07-31T12:00:20;4.82;;;2.20;;
36575;SDS011;45700;50.930;5.168;2023-07-31T12:04:23;4.70;;;1.67;;
36575;SDS011;45700;50.930;5.168;2023-07-31T12:08:24;4.93;;;2.17;;
36575;SDS011;45700;50.930;5.168;2023-07-31T12:12:25;7.70;;;2.50;;
36575;SDS011;45700;50.930;5.168;2023-07-31T12:16:26;5.38;;;2.00;;
36575;SDS011;45700;50.930;5.168;2023-07-31T12:20:29;4.65;;;1.98;;
36575;SDS011;45700;50.930;5.168;2023-07-31T12:24:30;5.85;;;2.40;;
36575;SDS011;45700;50.930;5.168;2023-07-31T12:28:41;5.30;;;2.28;;
36575;SDS011;45700;50.930;5.168;2023-07-31T12:32:42;6.80;;;2.30;;
36575;SDS011;45700;50.930;5.168;2023-07-31T12:36:45;9.82;;;2.10;;
36575;SDS011;45700;50.930;5.168;2023-07-31T12:40:46;5.72;;;2.13;;
36575;SDS011;45700;50.930;5.168;2023-07-31T12:44:47;5.35;;;2.55;;
36575;SDS011;45700;50.930;5.168;2023-07-31T12:48:48;4.13;;;2.63;;
36575;SDS011;45700;50.930;5.168;2023-07-31T12:52:49;5.47;;;1.60;;
36575;SDS011;45700;50.930;5.168;2023-07-31T12:56:50;7.30;;;2.58;;
36575;SDS011;45700;50.930;5.168;2023-07-31T13:00:51;5.97;;;2.85;;
36575;SDS011;45700;50.930;5.168;2023-07-31T13:04:52;5.72;;;2.67;;
36575;SDS011;45700;50.930;5.168;2023-07-31T13:08:54;5.22;;;1.92;;
36575;SDS011;45700;50.930;5.168;2023-07-31T13:12:55;5.65;;;2.35;;
36575;SDS011;45700;50.930;5.168;2023-07-31T13:16:56;6.80;;;2.35;;
36575;SDS011;45700;50.930;5.168;2023-07-31T13:20:57;12.13;;;3.05;;
36575;SDS011;45700;50.930;5.168;2023-07-31T13:24:58;7.35;;;2.97;;
36575;SDS011;45700;50.930;5.168;2023-07-31T13:28:59;6.57;;;2.70;;
36575;SDS011;45700;50.930;5.168;2023-07-31T13:33:00;4.68;;;2.10;;
36575;SDS011;45700;50.930;5.168;2023-07-31T13:37:02;8.93;;;2.28;;
36575;SDS011;45700;50.930;5.168;2023-07-31T13:41:03;4.72;;;1.88;;
36575;SDS011;45700;50.930;5.168;2023-07-31T13:45:05;7.30;;;2.20;;
36575;SDS011;45700;50.930;5.168;2023-07-31T13:49:06;6.88;;;2.10;;
36575;SDS011;45700;50.930;5.168;2023-07-31T13:53:07;5.85;;;2.72;;
36575;SDS011;45700;50.930;5.168;2023-07-31T13:57:08;7.97;;;2.75;;
36575;SDS011;45700;50.930;5.168;2023-07-31T14:01:10;6.78;;;2.60;;
36575;SDS011;45700;50.930;5.168;2023-07-31T14:05:11;5.63;;;2.22;;
36575;SDS011;45700;50.930;5.168;2023-07-31T14:09:12;5.20;;;2.50;;
36575;SDS011;45700;50.930;5.168;2023-07-31T14:13:14;4.63;;;2.00;;
36575;SDS011;45700;50.930;5.168;2023-07-31T14:17:15;6.28;;;1.60;;
36575;SDS011;45700;50.930;5.168;2023-07-31T14:21:16;4.97;;;1.52;;
36575;SDS011;45700;50.930;5.168;2023-07-31T14:25:19;6.80;;;1.83;;
36575;SDS011;45700;50.930;5.168;2023-07-31T14:29:20;4.25;;;1.83;;
36575;SDS011;45700;50.930;5.168;2023-07-31T14:33:21;3.47;;;1.50;;
36575;SDS011;45700;50.930;5.168;2023-07-31T14:37:25;4.75;;;1.80;;
36575;SDS011;45700;50.930;5.168;2023-07-31T14:41:27;4.03;;;1.42;;
36575;SDS011;45700;50.930;5.168;2023-07-31T14:45:28;2.70;;;1.58;;
36575;SDS011;45700;50.930;5.168;2023-07-31T14:49:29;2.83;;;1.20;;
36575;SDS011;45700;50.930;5.168;2023-07-31T14:53:30;4.32;;;1.30;;
36575;SDS011;45700;50.930;5.168;2023-07-31T14:57:31;4.57;;;1.25;;
36575;SDS011;45700;50.930;5.168;2023-07-31T15:01:32;2.58;;;1.27;;
36575;SDS011;45700;50.930;5.168;2023-07-31T15:05:33;3.85;;;1.48;;
36575;SDS011;45700;50.930;5.168;2023-07-31T15:09:34;1.58;;;1.23;;
36575;SDS011;45700;50.930;5.168;2023-07-31T15:13:35;5.03;;;1.23;;
36575;SDS011;45700;50.930;5.168;2023-07-31T15:17:36;4.50;;;1.25;;
36575;SDS011;45700;50.930;5.168;2023-07-31T15:21:37;4.78;;;1.75;;
36575;SDS011;45700;50.930;5.168;2023-07-31T15:25:38;1.92;;;1.40;;
36575;SDS011;45700;50.930;5.168;2023-07-31T15:29:40;2.22;;;1.13;;
36575;SDS011;45700;50.930;5.168;2023-07-31T15:33:41;2.97;;;1.45;;
36575;SDS011;45700;50.930;5.168;2023-07-31T15:37:42;2.25;;;1.30;;
36575;SDS011;45700;50.930;5.168;2023-07-31T15:41:43;2.15;;;0.98;;
36575;SDS011;45700;50.930;5.168;2023-07-31T15:45:44;3.22;;;1.23;;
36575;SDS011;45700;50.930;5.168;2023-07-31T15:49:45;2.55;;;1.20;;
36575;SDS011;45700;50.930;5.168;2023-07-31T15:53:47;2.08;;;1.20;;
36575;SDS011;45700;50.930;5.168;2023-07-31T15:57:48;3.65;;;1.58;;
36575;SDS011;45700;50.930;5.168;2023-07-31T16:01:49;3.00;;;1.40;;
36575;SDS011;45700;50.930;5.168;2023-07-31T16:05:50;1.60;;;1.08;;
36575;SDS011;45700;50.930;5.168;2023-07-31T16:09:51;2.03;;;1.27;;
36575;SDS011;45700;50.930;5.168;2023-07-31T16:13:52;2.47;;;1.17;;
36575;SDS011;45700;50.930;5.168;2023-07-31T16:17:53;2.25;;;1.23;;
36575;SDS011;45700;50.930;5.168;2023-07-31T16:21:54;2.38;;;1.13;;
36575;SDS011;45700;50.930;5.168;2023-07-31T16:25:55;2.08;;;1.33;;
36575;SDS011;45700;50.930;5.168;2023-07-31T16:29:56;1.45;;;1.08;;
36575;SDS011;45700;50.930;5.168;2023-07-31T16:34:00;1.88;;;0.98;;
36575;SDS011;45700;50.930;5.168;2023-07-31T16:38:01;2.40;;;1.08;;
36575;SDS011;45700;50.930;5.168;2023-07-31T16:42:02;3.88;;;1.20;;
36575;SDS011;45700;50.930;5.168;2023-07-31T16:46:03;1.80;;;0.93;;
36575;SDS011;45700;50.930;5.168;2023-07-31T16:50:04;1.85;;;0.70;;
36575;SDS011;45700;50.930;5.168;2023-07-31T16:54:05;2.88;;;1.00;;
36575;SDS011;45700;50.930;5.168;2023-07-31T16:58:06;1.70;;;0.63;;
36575;SDS011;45700;50.930;5.168;2023-07-31T17:02:07;1.63;;;0.60;;
36575;SDS011;45700;50.930;5.168;2023-07-31T17:06:09;3.30;;;1.10;;
36575;SDS011;45700;50.930;5.168;2023-07-31T17:10:10;1.45;;;0.90;;
36575;SDS011;45700;50.930;5.168;2023-07-31T17:14:11;2.00;;;0.82;;
36575;SDS011;45700;50.930;5.168;2023-07-31T17:18:12;1.88;;;0.70;;
36575;SDS011;45700;50.930;5.168;2023-07-31T17:22:14;2.00;;;0.80;;
36575;SDS011;45700;50.930;5.168;2023-07-31T17:26:15;1.20;;;0.55;;
36575;SDS011;45700;50.930;5.168;2023-07-31T17:30:16;2.58;;;0.63;;
36575;SDS011;45700;50.930;5.168;2023-07-31T17:34:17;2.20;;;0.95;;
36575;SDS011;45700;50.930;5.168;2023-07-31T17:38:19;1.85;;;1.08;;
36575;SDS011;45700;50.930;5.168;2023-07-31T17:42:20;1.45;;;0.85;;
36575;SDS011;45700;50.930;5.168;2023-07-31T17:46:21;3.78;;;0.88;;
36575;SDS011;45700;50.930;5.168;2023-07-31T17:50:22;1.52;;;0.85;;
36575;SDS011;45700;50.930;5.168;2023-07-31T17:54:23;1.25;;;0.88;;
36575;SDS011;45700;50.930;5.168;2023-07-31T17:58:25;2.00;;;1.23;;
36575;SDS011;45700;50.930;5.168;2023-07-31T18:02:26;1.58;;;0.75;;
36575;SDS011;45700;50.930;5.168;2023-07-31T18:06:29;2.97;;;1.00;;
36575;SDS011;45700;50.930;5.168;2023-07-31T18:10:34;1.77;;;0.85;;
36575;SDS011;45700;50.930;5.168;2023-07-31T18:14:35;3.50;;;1.08;;
36575;SDS011;45700;50.930;5.168;2023-07-31T18:18:37;4.07;;;1.10;;
36575;SDS011;45700;50.930;5.168;2023-07-31T18:22:38;2.03;;;1.30;;
36575;SDS011;45700;50.930;5.168;2023-07-31T18:26:39;1.10;;;0.80;;
36575;SDS011;45700;50.930;5.168;2023-07-31T18:30:40;4.88;;;1.35;;
36575;SDS011;45700;50.930;5.168;2023-07-31T18:34:41;1.35;;;0.85;;
36575;SDS011;45700;50.930;5.168;2023-07-31T18:38:42;3.70;;;1.13;;
36575;SDS011;45700;50.930;5.168;2023-07-31T18:42:45;2.78;;;1.00;;
36575;SDS011;45700;50.930;5.168;2023-07-31T18:46:47;1.80;;;1.00;;
36575;SDS011;45700;50.930;5.168;2023-07-31T18:50:48;1.40;;;0.80;;
36575;SDS011;45700;50.930;5.168;2023-07-31T18:54:50;1.40;;;0.47;;
36575;SDS011;45700;50.930;5.168;2023-07-31T18:58:52;1.05;;;0.85;;
36575;SDS011;45700;50.930;5.168;2023-07-31T19:02:53;1.95;;;0.63;;
36575;SDS011;45700;50.930;5.168;2023-07-31T19:06:54;0.90;;;0.70;;
36575;SDS011;45700;50.930;5.168;2023-07-31T19:10:55;1.98;;;1.10;;
36575;SDS011;45700;50.930;5.168;2023-07-31T19:14:56;1.52;;;0.85;;
36575;SDS011;45700;50.930;5.168;2023-07-31T19:18:57;1.13;;;0.73;;
36575;SDS011;45700;50.930;5.168;2023-07-31T19:22:59;1.52;;;0.80;;
36575;SDS011;45700;50.930;5.168;2023-07-31T19:27:00;4.40;;;0.77;;
36575;SDS011;45700;50.930;5.168;2023-07-31T19:31:01;0.93;;;0.45;;
36575;SDS011;45700;50.930;5.168;2023-07-31T19:35:02;1.45;;;0.88;;
36575;SDS011;45700;50.930;5.168;2023-07-31T19:39:03;0.82;;;0.70;;
36575;SDS011;45700;50.930;5.168;2023-07-31T19:43:04;1.65;;;0.68;;
36575;SDS011;45700;50.930;5.168;2023-07-31T19:47:05;1.05;;;0.60;;
36575;SDS011;45700;50.930;5.168;2023-07-31T19:51:06;1.38;;;0.75;;
36575;SDS011;45700;50.930;5.168;2023-07-31T19:55:07;1.50;;;0.68;;
36575;SDS011;45700;50.930;5.168;2023-07-31T19:59:09;2.38;;;0.80;;
36575;SDS011;45700;50.930;5.168;2023-07-31T20:03:10;0.70;;;0.52;;
36575;SDS011;45700;50.930;5.168;2023-07-31T20:07:11;1.92;;;1.08;;
36575;SDS011;45700;50.930;5.168;2023-07-31T20:11:12;2.72;;;1.10;;
36575;SDS011;45700;50.930;5.168;2023-07-31T20:15:22;0.77;;;0.57;;
36575;SDS011;45700;50.930;5.168;2023-07-31T20:19:23;2.83;;;0.85;;
36575;SDS011;45700;50.930;5.168;2023-07-31T20:23:24;1.15;;;0.80;;
36575;SDS011;45700;50.930;5.168;2023-07-31T20:27:25;1.17;;;0.60;;
36575;SDS011;45700;50.930;5.168;2023-07-31T20:31:26;2.75;;;0.82;;
36575;SDS011;45700;50.930;5.168;2023-07-31T20:35:27;0.77;;;0.70;;
36575;SDS011;45700;50.930;5.168;2023-07-31T20:39:28;2.10;;;0.70;;
36575;SDS011;45700;50.930;5.168;2023-07-31T20:43:29;1.77;;;0.82;;
36575;SDS011;45700;50.930;5.168;2023-07-31T20:47:30;1.80;;;0.95;;
36575;SDS011;45700;50.930;5.168;2023-07-31T20:51:32;0.75;;;0.50;;
36575;SDS011;45700;50.930;5.168;2023-07-31T20:55:34;1.00;;;0.88;;
36575;SDS011;45700;50.930;5.168;2023-07-31T20:59:35;5.57;;;1.02;;
36575;SDS011;45700;50.930;5.168;2023-07-31T21:03:37;1.27;;;0.88;;
36575;SDS011;45700;50.930;5.168;2023-07-31T21:07:38;1.35;;;0.70;;
36575;SDS011;45700;50.930;5.168;2023-07-31T21:11:42;4.53;;;0.73;;
36575;SDS011;45700;50.930;5.168;2023-07-31T21:15:43;1.20;;;0.75;;
36575;SDS011;45700;50.930;5.168;2023-07-31T21:19:45;1.13;;;0.80;;
36575;SDS011;45700;50.930;5.168;2023-07-31T21:23:46;1.05;;;0.60;;
36575;SDS011;45700;50.930;5.168;2023-07-31T21:27:47;0.80;;;0.63;;
36575;SDS011;45700;50.930;5.168;2023-07-31T21:31:48;1.30;;;0.70;;
36575;SDS011;45700;50.930;5.168;2023-07-31T21:35:49;1.45;;;0.60;;
36575;SDS011;45700;50.930;5.168;2023-07-31T21:39:50;0.68;;;0.38;;
36575;SDS011;45700;50.930;5.168;2023-07-31T21:43:51;0.98;;;0.40;;
36575;SDS011;45700;50.930;5.168;2023-07-31T21:47:52;1.00;;;0.40;;
36575;SDS011;45700;50.930;5.168;2023-07-31T21:51:53;0.40;;;0.35;;
36575;SDS011;45700;50.930;5.168;2023-07-31T21:55:54;0.52;;;0.38;;
36575;SDS011;45700;50.930;5.168;2023-07-31T21:59:55;1.10;;;0.50;;
36575;SDS011;45700;50.930;5.168;2023-07-31T22:03:56;0.40;;;0.30;;
36575;SDS011;45700;50.930;5.168;2023-07-31T22:07:57;0.98;;;0.50;;
36575;SDS011;45700;50.930;5.168;2023-07-31T22:11:58;0.55;;;0.32;;
36575;SDS011;45700;50.930;5.168;2023-07-31T22:15:59;0.47;;;0.30;;
36575;SDS011;45700;50.930;5.168;2023-07-31T22:20:00;0.70;;;0.40;;
36575;SDS011;45700;50.930;5.168;2023-07-31T22:24:02;0.63;;;0.40;;
36575;SDS011;45700;50.930;5.168;2023-07-31T22:28:03;0.30;;;0.30;;
36575;SDS011;45700;50.930;5.168;2023-07-31T22:32:04;3.78;;;0.70;;
36575;SDS011;45700;50.930;5.168;2023-07-31T22:36:05;3.20;;;0.40;;
36575;SDS011;45700;50.930;5.168;2023-07-31T22:40:06;0.43;;;0.32;;
36575;SDS011;45700;50.930;5.168;2023-07-31T22:44:07;1.08;;;0.20;;
36575;SDS011;45700;50.930;5.168;2023-07-31T22:48:08;0.88;;;0.40;;
36575;SDS011;45700;50.930;5.168;2023-07-31T22:52:09;0.63;;;0.32;;
36575;SDS011;45700;50.930;5.168;2023-07-31T22:56:10;0.47;;;0.20;;
36575;SDS011;45700;50.930;5.168;2023-07-31T23:00:11;0.32;;;0.20;;
36575;SDS011;45700;50.930;5.168;2023-07-31T23:04:13;0.20;;;0.10;;
36575;SDS011;45700;50.930;5.168;2023-07-31T23:08:14;0.77;;;0.28;;
36575;SDS011;45700;50.930;5.168;2023-07-31T23:12:15;0.20;;;0.20;;
36575;SDS011;45700;50.930;5.168;2023-07-31T23:16:16;0.43;;;0.20;;
36575;SDS011;45700;50.930;5.168;2023-07-31T23:20:17;0.32;;;0.20;;
36575;SDS011;45700;50.930;5.168;2023-07-31T23:24:18;0.10;;;0.10;;
36575;SDS011;45700;50.930;5.168;2023-07-31T23:28:19;0.43;;;0.32;;
36575;SDS011;45700;50.930;5.168;2023-07-31T23:32:20;0.25;;;0.22;;
36575;SDS011;45700;50.930;5.168;2023-07-31T23:36:21;0.43;;;0.20;;
36575;SDS011;45700;50.930;5.168;2023-07-31T23:40:23;0.30;;;0.30;;
36575;SDS011;45700;50.930;5.168;2023-07-31T23:44:24;0.32;;;0.20;;
36575;SDS011;45700;50.930;5.168;2023-07-31T23:48:25;0.52;;;0.30;;
36575;SDS011;45700;50.930;5.168;2023-07-31T23:52:27;0.28;;;0.25;;
36575;SDS011;45700;50.930;5.168;2023-07-31T23:56:28;0.77;;;0.43;;
